Terminal Aerodrome Forecast
Issued by NWS Buffalo, NY

Home | Current Version | Previous Version | Text Only | Print | Product List | Glossary On
Versions: 1 2 3 4 5 6 7 8 9 10 11 12 13 14 15 16 17 18 19 20 21 22 23 24 25 26 27
000
FTUS41 KBUF 212100 AAB
TAFART
TAF AMD
KART 212109Z 2121/2218 26007KT P6SM SCT100
     FM220000 00000KT P6SM OVC035
     FM220900 VRB03KT 6SM BR OVC020
     FM221500 06005KT P6SM BKN025=

USA.gov is the U.S. government's official web portal to all federal, state and local government web resources and services.